Flight Track Log - Related Links

Times and Time Zones

All times are in EDT time to prevent confusion due to time zone crossing. See the SQH87 flight status page for this flight to view local times or setup timezone preferences in your user account.

Time Position Orientation Groundspeed Altitude Reporting Facility
EDT Latitude Longitude Course Direction KTS MPH feet Rate Location/Type
Fri 04:41:29 PM 34.5025 -92.9556 79° East 142 163 3,300  Level Memphis Center
Fri 04:42:10 PM 34.5075 -92.9253 79° East 141 162 3,900 800 Climbing Memphis Center
Fri 04:42:29 PM 34.5139 -92.9078 66° East 143 165 4,100 806 Climbing Memphis Center
Fri 04:43:17 PM 34.5189 -92.8753 79° East 145 167 4,800 835 Climbing Memphis Center
Fri 04:44:24 PM 34.5303 -92.8228 75° East 144 166 5,700 682 Climbing Memphis Center
Fri 04:45:29 PM 34.5419 -92.7675 76° East 143 165 6,300 672 Climbing Memphis Center
Fri 04:46:29 PM 34.5511 -92.7147 78° East 143 165 7,100 718 Climbing Memphis Center
Fri 04:47:26 PM 34.5522 -92.6669 88° East 154 177 7,700 610 Climbing Memphis Center
Fri 04:48:27 PM 34.5614 -92.6219 76° East 154 177 8,300 689 Climbing Memphis Center
Fri 04:49:28 PM 34.5747 -92.5667 74° East 158 182 9,100 590 Climbing Memphis Center
Fri 04:50:29 PM 34.5925 -92.5092 69° East 148 170 9,500 248 Climbing Memphis Center
Fri 04:51:29 PM 34.6039 -92.4489 77° East 162 186 9,600 50 Climbing Memphis Center
Fri 04:52:29 PM 34.6156 -92.3811 78° East 185 213 9,600  Level Memphis Center
Fri 04:53:25 PM 34.6228 -92.3231 81° East 200 230 9,600 -50 Level Memphis Center
Fri 04:54:29 PM 34.6383 -92.2528 75° East 190 219 9,500  Descending Memphis Center
Fri 04:55:26 PM 34.6475 -92.1950 79° East 189 217 9,600 51 Climbing Memphis Center
Fri 04:56:27 PM 34.6611 -92.1322 75° East 195 224 9,600  Level Memphis Center
Fri 04:57:28 PM 34.6722 -92.0642 79° East 198 228 9,600  Level Memphis Center
Fri 04:58:29 PM 34.6858 -92.0014 75° East 197 227 9,600  Level Memphis Center
Fri 04:59:30 PM 34.7011 -91.9383 74° East 191 220 9,600 -47 Level Memphis Center
Fri 05:00:36 PM 34.7125 -91.8628 80° East 197 227 9,500  Descending Memphis Center
Fri 05:01:41 PM 34.7278 -91.8000 73° East 191 220 9,600 48 Climbing Memphis Center
Fri 05:02:41 PM 34.7369 -91.7344 80° East 191 220 9,600  Level Memphis Center
Fri 05:03:41 PM 34.7481 -91.6689 78° East 191 220 9,600  Level Memphis Center
Fri 05:04:41 PM 34.7572 -91.6008 81° East 201 231 9,600  Level Memphis Center
Fri 05:05:41 PM 34.7703 -91.5353 76° East 201 231 9,600  Level Memphis Center
Fri 05:06:41 PM 34.7814 -91.4697 78° East 201 231 9,600  Level Memphis Center
Fri 05:07:41 PM 34.7964 -91.3989 76° East 201 231 9,600  Level Memphis Center
Fri 05:08:41 PM 34.8094 -91.3308 77° East 201 231 9,600  Level Memphis Center
Fri 05:09:41 PM 34.8183 -91.2603 81° East 201 231 9,600  Level Memphis Center
Fri 05:10:41 PM 34.8336 -91.1944 74° East 201 231 9,600  Level Memphis Center
Fri 05:11:41 PM 34.8444 -91.1289 79° East 201 231 9,600 -50 Level Memphis Center
Fri 05:12:41 PM 34.8594 -91.0606 75° East 201 231 9,500 -50 Descending Memphis Center
Fri 05:13:41 PM 34.8703 -90.9925 79° East 201 231 9,500  Level Memphis Center
Fri 05:14:41 PM 34.8808 -90.9242 79° East 201 231 9,500  Level Memphis Center
Fri 05:15:41 PM 34.8936 -90.8583 77° East 201 231 9,500  Level Memphis Center
Fri 05:16:41 PM 34.9022 -90.7978 80° East 201 231 9,500 -150 Level Memphis Center
Fri 05:17:41 PM 34.9150 -90.7269 78° East 201 231 9,200 -450 Descending Memphis Center
Fri 05:18:41 PM 34.9278 -90.6586 77° East 201 231 8,600 -750 Descending Memphis Center
Fri 05:19:41 PM 34.9508 -90.5953 66° East 201 231 7,700 -850 Descending Memphis Center
Fri 05:20:41 PM 34.9697 -90.5319 70° East 206 237 6,900 -850 Descending Memphis Center
Fri 05:21:41 PM 34.9928 -90.4736 64° Northeast 195 224 6,000 -950 Descending Memphis Center
Fri 05:22:41 PM 35.0178 -90.4103 64° Northeast 190 219 5,000 -1,000 Descending Memphis Center
Fri 05:23:41 PM 35.0428 -90.3544 61° Northeast 184 212 4,000 -800 Descending Memphis Center
Fri 05:24:41 PM 35.0658 -90.3039 61° Northeast 179 206 3,400 -700 Descending Memphis Center
Fri 05:25:41 PM 35.0886 -90.2481 63° Northeast 179 206 2,600 -450 Descending Memphis Center
Fri 05:26:41 PM 35.1136 -90.1972 59° Northeast 179 206 2,500 -50 Descending Memphis Center
Fri 05:27:41 PM 35.1219 -90.1414 80° East 169 194 2,500 -150 Level Memphis Center
Fri 05:28:41 PM 35.1217 -90.0856 90° East 164 189 2,200 -233 Descending Memphis Center
Fri 05:29:24 PM 35.1167 -90.0333 97° East 174 200 2,100 -440 Descending KMEM
Fri 05:30:30 PM 35.0833 -89.9833 129° Southeast 158 182 1,400 -636 Descending KMEM
Fri 05:32:00 PM 35.0424 -89.9767 North  Level Estimated
Fri 05:39:00 PM 35.0424 -89.9767 North  Level Estimated
Fri 05:40:00 PM 35.0424 -89.9767 North  Level Estimated

Login

Don't have an account? Register now (free) for customized features, flight alerts, and more!